sensor_id;sensor_type;location;lat;lon;timestamp;pressure;altitude;pressure_sealevel;temperature;humidity
27805;BME280;15183;51.350;11.102;2022-11-20T00:01:24;99763.94;;;-0.03;67.67
27805;BME280;15183;51.350;11.102;2022-11-20T00:03:53;99772.09;;;-0.06;69.17
27805;BME280;15183;51.350;11.102;2022-11-20T00:06:21;99758.53;;;-0.18;69.98
27805;BME280;15183;51.350;11.102;2022-11-20T00:08:48;99768.53;;;0.04;70.36
27805;BME280;15183;51.350;11.102;2022-11-20T00:11:21;99790.88;;;0.23;69.99
27805;BME280;15183;51.350;11.102;2022-11-20T00:13:51;99774.44;;;0.22;70.40
27805;BME280;15183;51.350;11.102;2022-11-20T00:16:21;99778.53;;;0.33;69.80
27805;BME280;15183;51.350;11.102;2022-11-20T00:18:48;99781.97;;;0.42;69.73
27805;BME280;15183;51.350;11.102;2022-11-20T00:21:20;99761.25;;;0.24;69.26
27805;BME280;15183;51.350;11.102;2022-11-20T00:23:48;99777.72;;;0.24;69.14
27805;BME280;15183;51.350;11.102;2022-11-20T00:26:18;99781.09;;;0.17;68.69
27805;BME280;15183;51.350;11.102;2022-11-20T00:28:54;99771.31;;;0.10;69.06
27805;BME280;15183;51.350;11.102;2022-11-20T00:31:21;99755.84;;;0.09;69.50
27805;BME280;15183;51.350;11.102;2022-11-20T00:33:48;99763.66;;;0.17;69.18
27805;BME280;15183;51.350;11.102;2022-11-20T00:36:24;99765.81;;;0.30;69.32
27805;BME280;15183;51.350;11.102;2022-11-20T00:38:56;99764.19;;;0.37;69.16
27805;BME280;15183;51.350;11.102;2022-11-20T00:41:25;99741.72;;;0.28;69.08
27805;BME280;15183;51.350;11.102;2022-11-20T00:43:53;99742.69;;;0.35;69.50
27805;BME280;15183;51.350;11.102;2022-11-20T00:46:24;99722.81;;;0.18;68.71
27805;BME280;15183;51.350;11.102;2022-11-20T00:48:50;99754.28;;;0.49;68.60
27805;BME280;15183;51.350;11.102;2022-11-20T00:51:21;99766.84;;;0.54;68.59
27805;BME280;15183;51.350;11.102;2022-11-20T00:53:49;99751.03;;;0.55;68.98
27805;BME280;15183;51.350;11.102;2022-11-20T00:56:18;99758.69;;;0.57;68.63
27805;BME280;15183;51.350;11.102;2022-11-20T00:58:47;99748.41;;;0.47;68.13
27805;BME280;15183;51.350;11.102;2022-11-20T01:01:21;99743.06;;;0.49;68.14
27805;BME280;15183;51.350;11.102;2022-11-20T01:03:50;99731.31;;;0.45;68.05
27805;BME280;15183;51.350;11.102;2022-11-20T01:06:32;99740.28;;;0.50;68.73
27805;BME280;15183;51.350;11.102;2022-11-20T01:09:04;99736.03;;;0.49;67.92
27805;BME280;15183;51.350;11.102;2022-11-20T01:11:34;99761.78;;;0.52;68.13
27805;BME280;15183;51.350;11.102;2022-11-20T01:14:04;99717.94;;;0.23;67.85
27805;BME280;15183;51.350;11.102;2022-11-20T01:16:41;99743.34;;;0.21;67.53
27805;BME280;15183;51.350;11.102;2022-11-20T01:19:12;99757.66;;;0.17;67.76
27805;BME280;15183;51.350;11.102;2022-11-20T01:21:42;99712.63;;;-0.19;68.17
27805;BME280;15183;51.350;11.102;2022-11-20T01:24:13;99735.44;;;-0.04;68.25
27805;BME280;15183;51.350;11.102;2022-11-20T01:26:41;99747.88;;;0.02;68.18
27805;BME280;15183;51.350;11.102;2022-11-20T01:29:22;99732.63;;;-0.19;67.43
27805;BME280;15183;51.350;11.102;2022-11-20T01:31:49;99721.53;;;-0.38;68.30
27805;BME280;15183;51.350;11.102;2022-11-20T01:34:19;99744.19;;;-0.22;68.74
27805;BME280;15183;51.350;11.102;2022-11-20T01:36:46;99736.69;;;-0.25;68.54
27805;BME280;15183;51.350;11.102;2022-11-20T01:39:22;99727.59;;;-0.29;68.49
27805;BME280;15183;51.350;11.102;2022-11-20T01:41:51;99739.00;;;-0.22;68.91
27805;BME280;15183;51.350;11.102;2022-11-20T01:44:58;99746.50;;;-0.10;69.34
27805;BME280;15183;51.350;11.102;2022-11-20T01:47:30;99743.44;;;-0.06;69.06
27805;BME280;15183;51.350;11.102;2022-11-20T01:50:24;99737.72;;;-0.09;69.00
27805;BME280;15183;51.350;11.102;2022-11-20T01:53:02;99741.63;;;-0.05;68.36
27805;BME280;15183;51.350;11.102;2022-11-20T01:55:37;99736.09;;;-0.10;68.80
27805;BME280;15183;51.350;11.102;2022-11-20T01:58:06;99727.97;;;-0.07;68.28
27805;BME280;15183;51.350;11.102;2022-11-20T02:00:33;99736.09;;;-0.02;68.44
27805;BME280;15183;51.350;11.102;2022-11-20T02:03:09;99734.66;;;0.04;68.57
27805;BME280;15183;51.350;11.102;2022-11-20T02:06:18;99735.84;;;0.09;68.57
27805;BME280;15183;51.350;11.102;2022-11-20T02:08:45;99727.50;;;0.06;68.90
27805;BME280;15183;51.350;11.102;2022-11-20T02:11:12;99714.81;;;0.03;68.42
27805;BME280;15183;51.350;11.102;2022-11-20T02:13:39;99732.59;;;0.16;68.52
27805;BME280;15183;51.350;11.102;2022-11-20T02:18:46;99738.44;;;0.26;68.06
27805;BME280;15183;51.350;11.102;2022-11-20T02:21:28;99721.19;;;0.17;68.54
27805;BME280;15183;51.350;11.102;2022-11-20T02:24:18;99724.13;;;0.22;68.51
27805;BME280;15183;51.350;11.102;2022-11-20T02:27:10;99723.78;;;0.25;67.93
27805;BME280;15183;51.350;11.102;2022-11-20T02:32:04;99710.13;;;0.23;68.37
27805;BME280;15183;51.350;11.102;2022-11-20T02:34:31;99689.75;;;0.18;67.51
27805;BME280;15183;51.350;11.102;2022-11-20T02:36:59;99640.56;;;-0.10;67.29
27805;BME280;15183;51.350;11.102;2022-11-20T02:39:27;99693.69;;;0.31;67.83
27805;BME280;15183;51.350;11.102;2022-11-20T02:41:54;99690.59;;;0.27;66.95
27805;BME280;15183;51.350;11.102;2022-11-20T02:44:22;99702.63;;;0.36;67.03
27805;BME280;15183;51.350;11.102;2022-11-20T02:46:48;99677.22;;;0.22;66.92
27805;BME280;15183;51.350;11.102;2022-11-20T02:49:15;99679.38;;;0.26;67.44
27805;BME280;15183;51.350;11.102;2022-11-20T02:51:42;99690.44;;;0.37;66.66
27805;BME280;15183;51.350;11.102;2022-11-20T02:54:09;99670.06;;;0.24;66.75
27805;BME280;15183;51.350;11.102;2022-11-20T02:56:38;99687.00;;;0.28;67.49
27805;BME280;15183;51.350;11.102;2022-11-20T02:59:05;99666.16;;;0.11;67.69
27805;BME280;15183;51.350;11.102;2022-11-20T03:01:32;99688.94;;;0.26;67.41
27805;BME280;15183;51.350;11.102;2022-11-20T03:03:58;99667.78;;;0.12;67.59
27805;BME280;15183;51.350;11.102;2022-11-20T03:06:25;99706.72;;;0.31;67.36
27805;BME280;15183;51.350;11.102;2022-11-20T03:08:52;99683.75;;;0.26;67.03
27805;BME280;15183;51.350;11.102;2022-11-20T03:11:18;99679.19;;;0.11;66.52
27805;BME280;15183;51.350;11.102;2022-11-20T03:13:45;99696.59;;;0.11;66.11
27805;BME280;15183;51.350;11.102;2022-11-20T03:16:15;99689.41;;;-0.04;66.00
27805;BME280;15183;51.350;11.102;2022-11-20T03:18:43;99689.72;;;-0.07;66.36
27805;BME280;15183;51.350;11.102;2022-11-20T03:21:10;99680.09;;;-0.15;67.17
27805;BME280;15183;51.350;11.102;2022-11-20T03:23:38;99681.06;;;-0.16;67.16
27805;BME280;15183;51.350;11.102;2022-11-20T03:26:09;99677.50;;;-0.23;66.47
27805;BME280;15183;51.350;11.102;2022-11-20T03:28:36;99678.09;;;-0.37;66.49
27805;BME280;15183;51.350;11.102;2022-11-20T03:31:15;99686.69;;;-0.45;66.87
27805;BME280;15183;51.350;11.102;2022-11-20T03:33:42;99690.41;;;-0.48;66.87
27805;BME280;15183;51.350;11.102;2022-11-20T03:36:12;99690.75;;;-0.42;67.13
27805;BME280;15183;51.350;11.102;2022-11-20T03:38:39;99691.78;;;-0.35;67.39
27805;BME280;15183;51.350;11.102;2022-11-20T03:41:13;99660.16;;;-0.49;66.70
27805;BME280;15183;51.350;11.102;2022-11-20T03:43:40;99689.34;;;-0.28;67.74
27805;BME280;15183;51.350;11.102;2022-11-20T03:46:07;99695.06;;;-0.25;67.56
27805;BME280;15183;51.350;11.102;2022-11-20T03:48:33;99689.53;;;-0.22;66.77
27805;BME280;15183;51.350;11.102;2022-11-20T03:53:42;99664.78;;;-0.34;66.77
27805;BME280;15183;51.350;11.102;2022-11-20T03:56:11;99674.38;;;-0.26;66.98
27805;BME280;15183;51.350;11.102;2022-11-20T03:58:40;99689.06;;;-0.17;67.36
27805;BME280;15183;51.350;11.102;2022-11-20T04:01:15;99662.50;;;-0.29;67.47
27805;BME280;15183;51.350;11.102;2022-11-20T04:03:43;99658.28;;;-0.30;67.68
27805;BME280;15183;51.350;11.102;2022-11-20T04:06:20;99684.66;;;-0.08;67.07
27805;BME280;15183;51.350;11.102;2022-11-20T04:08:47;99686.94;;;-0.05;67.76
27805;BME280;15183;51.350;11.102;2022-11-20T04:11:16;99696.06;;;-0.01;67.71
27805;BME280;15183;51.350;11.102;2022-11-20T04:13:48;99697.56;;;0.02;67.60
27805;BME280;15183;51.350;11.102;2022-11-20T04:16:15;99680.75;;;-0.04;67.31
27805;BME280;15183;51.350;11.102;2022-11-20T04:18:42;99688.75;;;0.03;66.72
27805;BME280;15183;51.350;11.102;2022-11-20T04:21:10;99687.63;;;0.05;67.01
27805;BME280;15183;51.350;11.102;2022-11-20T04:23:37;99687.63;;;0.05;66.63
27805;BME280;15183;51.350;11.102;2022-11-20T04:26:10;99664.66;;;-0.16;66.54
27805;BME280;15183;51.350;11.102;2022-11-20T04:28:38;99692.66;;;-0.02;66.30
27805;BME280;15183;51.350;11.102;2022-11-20T04:31:14;99663.19;;;-0.19;66.15
27805;BME280;15183;51.350;11.102;2022-11-20T04:33:41;99680.44;;;-0.01;66.93
27805;BME280;15183;51.350;11.102;2022-11-20T04:36:22;99678.16;;;-0.04;66.33
27805;BME280;15183;51.350;11.102;2022-11-20T04:38:58;99653.59;;;-0.10;66.60
27805;BME280;15183;51.350;11.102;2022-11-20T04:41:28;99673.13;;;0.03;66.53
27805;BME280;15183;51.350;11.102;2022-11-20T04:43:58;99671.50;;;0.02;66.27
27805;BME280;15183;51.350;11.102;2022-11-20T04:46:26;99636.47;;;-0.21;66.07
27805;BME280;15183;51.350;11.102;2022-11-20T04:48:53;99664.50;;;-0.06;66.08
27805;BME280;15183;51.350;11.102;2022-11-20T04:51:20;99634.34;;;-0.25;65.95
27805;BME280;15183;51.350;11.102;2022-11-20T04:53:46;99676.53;;;-0.05;65.60
27805;BME280;15183;51.350;11.102;2022-11-20T04:56:13;99671.00;;;-0.10;65.74
27805;BME280;15183;51.350;11.102;2022-11-20T04:58:40;99659.25;;;-0.23;65.89
27805;BME280;15183;51.350;11.102;2022-11-20T05:01:16;99643.31;;;-0.36;65.34
27805;BME280;15183;51.350;11.102;2022-11-20T05:03:44;99664.78;;;-0.26;65.74
27805;BME280;15183;51.350;11.102;2022-11-20T05:06:14;99639.53;;;-0.42;65.59
27805;BME280;15183;51.350;11.102;2022-11-20T05:08:41;99641.97;;;-0.40;66.02
27805;BME280;15183;51.350;11.102;2022-11-20T05:11:14;99651.72;;;-0.42;65.99
27805;BME280;15183;51.350;11.102;2022-11-20T05:13:41;99639.84;;;-0.45;66.19
27805;BME280;15183;51.350;11.102;2022-11-20T05:16:11;99653.03;;;-0.38;66.27
27805;BME280;15183;51.350;11.102;2022-11-20T05:18:39;99625.34;;;-0.56;66.04
27805;BME280;15183;51.350;11.102;2022-11-20T05:21:07;99626.81;;;-0.53;65.96
27805;BME280;15183;51.350;11.102;2022-11-20T05:23:34;99647.81;;;-0.38;66.16
27805;BME280;15183;51.350;11.102;2022-11-20T05:26:01;99640.66;;;-0.45;65.83
27805;BME280;15183;51.350;11.102;2022-11-20T05:28:29;99636.88;;;-0.59;65.25
27805;BME280;15183;51.350;11.102;2022-11-20T05:31:03;99648.63;;;-0.54;65.29
27805;BME280;15183;51.350;11.102;2022-11-20T05:33:30;99644.66;;;-0.59;65.33
27805;BME280;15183;51.350;11.102;2022-11-20T05:35:59;99638.31;;;-0.73;65.24
27805;BME280;15183;51.350;11.102;2022-11-20T05:38:25;99642.69;;;-0.73;65.22
27805;BME280;15183;51.350;11.102;2022-11-20T05:40:52;99650.13;;;-0.78;65.56
27805;BME280;15183;51.350;11.102;2022-11-20T05:43:18;99620.06;;;-1.15;64.94
27805;BME280;15183;51.350;11.102;2022-11-20T05:45:53;99624.00;;;-1.38;65.58
27805;BME280;15183;51.350;11.102;2022-11-20T05:48:20;99643.72;;;-1.27;65.55
27805;BME280;15183;51.350;11.102;2022-11-20T05:50:48;99642.56;;;-1.24;66.08
27805;BME280;15183;51.350;11.102;2022-11-20T05:53:14;99647.78;;;-1.24;65.68
27805;BME280;15183;51.350;11.102;2022-11-20T05:55:40;99590.03;;;-1.63;66.42
27805;BME280;15183;51.350;11.102;2022-11-20T05:58:07;99643.72;;;-1.27;65.95
27805;BME280;15183;51.350;11.102;2022-11-20T06:00:33;99661.19;;;-1.11;65.89
27805;BME280;15183;51.350;11.102;2022-11-20T06:03:00;99661.22;;;-1.03;66.08
27805;BME280;15183;51.350;11.102;2022-11-20T06:05:26;99630.59;;;-1.17;66.24
27805;BME280;15183;51.350;11.102;2022-11-20T06:07:53;99654.78;;;-0.90;66.31
27805;BME280;15183;51.350;11.102;2022-11-20T06:10:19;99629.06;;;-1.02;66.59
27805;BME280;15183;51.350;11.102;2022-11-20T06:12:46;99639.03;;;-0.89;66.80
27805;BME280;15183;51.350;11.102;2022-11-20T06:15:12;99660.75;;;-0.71;67.24
27805;BME280;15183;51.350;11.102;2022-11-20T06:17:38;99633.09;;;-0.73;67.34
27805;BME280;15183;51.350;11.102;2022-11-20T06:20:06;99654.63;;;-0.46;66.98
27805;BME280;15183;51.350;11.102;2022-11-20T06:22:32;99655.03;;;-0.32;67.57
27805;BME280;15183;51.350;11.102;2022-11-20T06:24:59;99633.19;;;-0.39;66.88
27805;BME280;15183;51.350;11.102;2022-11-20T06:27:26;99663.19;;;-0.10;67.18
27805;BME280;15183;51.350;11.102;2022-11-20T06:29:53;99668.59;;;0.05;67.42
27805;BME280;15183;51.350;11.102;2022-11-20T06:32:19;99659.31;;;0.10;67.30
27805;BME280;15183;51.350;11.102;2022-11-20T06:34:45;99653.28;;;0.02;66.11
27805;BME280;15183;51.350;11.102;2022-11-20T06:37:12;99658.34;;;0.03;66.58
27805;BME280;15183;51.350;11.102;2022-11-20T06:39:38;99657.50;;;0.03;67.11
27805;BME280;15183;51.350;11.102;2022-11-20T06:42:05;99672.66;;;0.07;66.96
27805;BME280;15183;51.350;11.102;2022-11-20T06:44:31;99646.44;;;-0.08;66.96
27805;BME280;15183;51.350;11.102;2022-11-20T06:46:57;99659.97;;;0.04;66.08
27805;BME280;15183;51.350;11.102;2022-11-20T06:49:24;99654.56;;;-0.03;66.22
27805;BME280;15183;51.350;11.102;2022-11-20T06:51:51;99661.09;;;0.02;66.16
27805;BME280;15183;51.350;11.102;2022-11-20T06:54:17;99653.59;;;-0.02;66.02
27805;BME280;15183;51.350;11.102;2022-11-20T06:56:47;99648.72;;;-0.05;66.11
27805;BME280;15183;51.350;11.102;2022-11-20T06:59:14;99656.84;;;-0.08;65.76
27805;BME280;15183;51.350;11.102;2022-11-20T07:01:41;99657.63;;;-0.24;65.58
27805;BME280;15183;51.350;11.102;2022-11-20T07:04:07;99649.13;;;-0.42;65.17
27805;BME280;15183;51.350;11.102;2022-11-20T07:06:33;99648.38;;;-0.69;64.35
27805;BME280;15183;51.350;11.102;2022-11-20T07:09:00;99644.66;;;-1.02;64.80
27805;BME280;15183;51.350;11.102;2022-11-20T07:11:27;99620.88;;;-1.41;65.36
27805;BME280;15183;51.350;11.102;2022-11-20T07:13:54;99629.44;;;-1.49;65.53
27805;BME280;15183;51.350;11.102;2022-11-20T07:16:20;99625.38;;;-1.70;66.07
27805;BME280;15183;51.350;11.102;2022-11-20T07:18:46;99639.34;;;-1.71;66.86
27805;BME280;15183;51.350;11.102;2022-11-20T07:21:13;99620.84;;;-1.68;67.14
27805;BME280;15183;51.350;11.102;2022-11-20T07:23:39;99604.66;;;-1.62;68.25
27805;BME280;15183;51.350;11.102;2022-11-20T07:26:09;99625.31;;;-1.34;68.63
27805;BME280;15183;51.350;11.102;2022-11-20T07:28:37;99644.16;;;-1.05;68.47
27805;BME280;15183;51.350;11.102;2022-11-20T07:31:04;99634.00;;;-0.82;68.81
27805;BME280;15183;51.350;11.102;2022-11-20T07:33:32;99626.44;;;-0.67;69.00
27805;BME280;15183;51.350;11.102;2022-11-20T07:35:59;99633.81;;;-0.46;68.40
27805;BME280;15183;51.350;11.102;2022-11-20T07:38:26;99636.78;;;-0.32;68.79
27805;BME280;15183;51.350;11.102;2022-11-20T07:40:56;99634.84;;;-0.22;68.70
27805;BME280;15183;51.350;11.102;2022-11-20T07:43:24;99642.00;;;-0.24;68.29
27805;BME280;15183;51.350;11.102;2022-11-20T07:45:51;99628.16;;;-0.41;68.05
27805;BME280;15183;51.350;11.102;2022-11-20T07:48:17;99628.56;;;-0.62;67.61
27805;BME280;15183;51.350;11.102;2022-11-20T07:50:44;99627.69;;;-0.79;67.50
27805;BME280;15183;51.350;11.102;2022-11-20T07:53:10;99624.41;;;-0.90;68.15
27805;BME280;15183;51.350;11.102;2022-11-20T07:55:38;99625.22;;;-0.89;69.14
27805;BME280;15183;51.350;11.102;2022-11-20T07:58:05;99597.88;;;-1.02;68.84
27805;BME280;15183;51.350;11.102;2022-11-20T08:00:31;99615.97;;;-0.83;69.60
27805;BME280;15183;51.350;11.102;2022-11-20T08:02:58;99608.72;;;-0.71;70.33
27805;BME280;15183;51.350;11.102;2022-11-20T08:05:24;99621.78;;;-0.47;70.04
27805;BME280;15183;51.350;11.102;2022-11-20T08:07:51;99615.13;;;-0.41;70.60
27805;BME280;15183;51.350;11.102;2022-11-20T08:10:18;99627.56;;;-0.18;70.19
27805;BME280;15183;51.350;11.102;2022-11-20T08:12:50;99612.91;;;-0.11;70.47
27805;BME280;15183;51.350;11.102;2022-11-20T08:15:35;99610.59;;;-0.22;69.51
27805;BME280;15183;51.350;11.102;2022-11-20T08:18:04;99633.75;;;-0.11;69.26
27805;BME280;15183;51.350;11.102;2022-11-20T08:20:31;99642.69;;;-0.05;69.89
27805;BME280;15183;51.350;11.102;2022-11-20T08:23:04;99642.06;;;0.01;69.90
27805;BME280;15183;51.350;11.102;2022-11-20T08:25:33;99629.34;;;-0.02;70.15
27805;BME280;15183;51.350;11.102;2022-11-20T08:28:03;99609.81;;;-0.06;70.50
27805;BME280;15183;51.350;11.102;2022-11-20T08:30:31;99630.00;;;0.17;70.26
27805;BME280;15183;51.350;11.102;2022-11-20T08:33:08;99635.88;;;0.27;70.19
27805;BME280;15183;51.350;11.102;2022-11-20T08:35:36;99644.19;;;0.31;70.20
27805;BME280;15183;51.350;11.102;2022-11-20T08:38:05;99627.25;;;0.26;69.76
27805;BME280;15183;51.350;11.102;2022-11-20T08:40:33;99644.50;;;0.36;70.29
27805;BME280;15183;51.350;11.102;2022-11-20T08:42:59;99646.13;;;0.28;69.80
27805;BME280;15183;51.350;11.102;2022-11-20T08:45:27;99644.34;;;0.21;69.65
27805;BME280;15183;51.350;11.102;2022-11-20T08:47:53;99659.97;;;0.21;70.37
27805;BME280;15183;51.350;11.102;2022-11-20T08:50:19;99646.63;;;0.16;70.71
27805;BME280;15183;51.350;11.102;2022-11-20T08:52:46;99662.44;;;0.22;70.74
27805;BME280;15183;51.350;11.102;2022-11-20T08:55:12;99659.31;;;0.27;70.90
27805;BME280;15183;51.350;11.102;2022-11-20T08:57:39;99651.03;;;0.32;71.22
27805;BME280;15183;51.350;11.102;2022-11-20T09:00:07;99620.91;;;0.12;70.73
27805;BME280;15183;51.350;11.102;2022-11-20T09:02:34;99661.91;;;0.27;71.18
27805;BME280;15183;51.350;11.102;2022-11-20T09:05:00;99642.72;;;0.20;71.67
27805;BME280;15183;51.350;11.102;2022-11-20T09:07:29;99631.00;;;0.16;71.33
27805;BME280;15183;51.350;11.102;2022-11-20T09:09:56;99645.63;;;0.33;71.89
27805;BME280;15183;51.350;11.102;2022-11-20T09:12:22;99653.47;;;0.50;72.25
27805;BME280;15183;51.350;11.102;2022-11-20T09:14:49;99644.63;;;0.67;72.34
27805;BME280;15183;51.350;11.102;2022-11-20T09:17:15;99648.53;;;0.80;71.78
27805;BME280;15183;51.350;11.102;2022-11-20T09:19:41;99631.41;;;0.85;72.24
27805;BME280;15183;51.350;11.102;2022-11-20T09:22:08;99633.97;;;0.94;72.09
27805;BME280;15183;51.350;11.102;2022-11-20T09:24:43;99608.41;;;0.89;72.16
27805;BME280;15183;51.350;11.102;2022-11-20T09:27:10;99635.59;;;1.03;71.93
27805;BME280;15183;51.350;11.102;2022-11-20T09:29:36;99620.06;;;1.10;72.09
27805;BME280;15183;51.350;11.102;2022-11-20T09:32:03;99615.38;;;1.05;71.63
27805;BME280;15183;51.350;11.102;2022-11-20T09:34:29;99625.13;;;1.11;71.70
27805;BME280;15183;51.350;11.102;2022-11-20T09:36:56;99613.59;;;0.97;71.70
27805;BME280;15183;51.350;11.102;2022-11-20T09:39:22;99628.22;;;1.07;71.98
27805;BME280;15183;51.350;11.102;2022-11-20T09:47:52;99602.63;;;1.10;72.62
27805;BME280;15183;51.350;11.102;2022-11-20T09:50:50;99614.50;;;1.21;73.00
27805;BME280;15183;51.350;11.102;2022-11-20T09:56:03;99605.47;;;1.32;72.59
27805;BME280;15183;51.350;11.102;2022-11-20T09:58:51;99599.38;;;1.40;73.11
27805;BME280;15183;51.350;11.102;2022-11-20T10:01:32;99589.59;;;1.42;73.02
27805;BME280;15183;51.350;11.102;2022-11-20T10:09:33;99579.66;;;1.69;74.00
27805;BME280;15183;51.350;11.102;2022-11-20T10:31:37;99564.56;;;2.17;73.51
27805;BME280;15183;51.350;11.102;2022-11-20T10:37:17;99564.78;;;2.31;73.75
27805;BME280;15183;51.350;11.102;2022-11-20T10:39:56;99570.94;;;2.38;74.12
27805;BME280;15183;51.350;11.102;2022-11-20T10:42:43;99541.63;;;2.28;73.60
27805;BME280;15183;51.350;11.102;2022-11-20T10:48:19;99559.91;;;2.43;74.23
27805;BME280;15183;51.350;11.102;2022-11-20T10:56:50;99554.00;;;2.49;74.74
27805;BME280;15183;51.350;11.102;2022-11-20T11:00:04;99517.66;;;2.39;74.58
27805;BME280;15183;51.350;11.102;2022-11-20T11:07:51;99539.28;;;2.63;74.18
27805;BME280;15183;51.350;11.102;2022-11-20T11:13:24;99548.09;;;2.77;74.77
27805;BME280;15183;51.350;11.102;2022-11-20T11:15:52;99550.19;;;2.82;74.88
27805;BME280;15183;51.350;11.102;2022-11-20T11:18:28;99549.66;;;2.86;74.53
27805;BME280;15183;51.350;11.102;2022-11-20T11:20:57;99519.06;;;2.72;75.07
27805;BME280;15183;51.350;11.102;2022-11-20T11:23:43;99541.34;;;2.98;75.40
27805;BME280;15183;51.350;11.102;2022-11-20T11:26:23;99535.53;;;3.02;74.70
27805;BME280;15183;51.350;11.102;2022-11-20T11:29:03;99523.56;;;2.93;74.82
27805;BME280;15183;51.350;11.102;2022-11-20T11:31:33;99504.81;;;2.89;75.49
27805;BME280;15183;51.350;11.102;2022-11-20T11:34:26;99517.41;;;3.01;74.94
27805;BME280;15183;51.350;11.102;2022-11-20T11:36:57;99505.97;;;3.02;75.28
27805;BME280;15183;51.350;11.102;2022-11-20T11:39:26;99514.16;;;3.14;75.06
27805;BME280;15183;51.350;11.102;2022-11-20T11:41:54;99526.66;;;3.18;74.88
27805;BME280;15183;51.350;11.102;2022-11-20T11:44:44;99518.63;;;3.20;74.91
27805;BME280;15183;51.350;11.102;2022-11-20T11:47:44;99519.09;;;3.24;75.25
27805;BME280;15183;51.350;11.102;2022-11-20T11:50:17;99518.50;;;3.28;75.90
27805;BME280;15183;51.350;11.102;2022-11-20T11:56:02;99509.44;;;3.46;75.53
27805;BME280;15183;51.350;11.102;2022-11-20T11:58:51;99510.47;;;3.52;75.43
27805;BME280;15183;51.350;11.102;2022-11-20T12:01:44;99506.31;;;3.57;75.53
27805;BME280;15183;51.350;11.102;2022-11-20T12:07:29;99488.59;;;3.59;74.88
27805;BME280;15183;51.350;11.102;2022-11-20T12:10:00;99479.69;;;3.54;75.72
27805;BME280;15183;51.350;11.102;2022-11-20T12:12:40;99492.53;;;3.70;75.67
27805;BME280;15183;51.350;11.102;2022-11-20T12:15:22;99486.59;;;3.83;75.85
27805;BME280;15183;51.350;11.102;2022-11-20T12:17:49;99460.75;;;3.80;76.25
27805;BME280;15183;51.350;11.102;2022-11-20T12:20:16;99475.81;;;4.00;75.97
27805;BME280;15183;51.350;11.102;2022-11-20T12:23:23;99494.22;;;4.13;75.21
27805;BME280;15183;51.350;11.102;2022-11-20T12:25:57;99467.63;;;4.10;75.17
27805;BME280;15183;51.350;11.102;2022-11-20T12:31:54;99480.38;;;4.19;75.24
27805;BME280;15183;51.350;11.102;2022-11-20T12:43:31;99475.47;;;4.10;75.52
27805;BME280;15183;51.350;11.102;2022-11-20T12:46:42;99466.66;;;4.17;75.70
27805;BME280;15183;51.350;11.102;2022-11-20T12:49:41;99455.16;;;4.18;75.58
27805;BME280;15183;51.350;11.102;2022-11-20T12:55:10;99465.66;;;4.18;75.55
27805;BME280;15183;51.350;11.102;2022-11-20T12:57:55;99470.91;;;4.18;75.62
27805;BME280;15183;51.350;11.102;2022-11-20T13:00:24;99445.44;;;4.12;76.04
27805;BME280;15183;51.350;11.102;2022-11-20T13:03:21;99459.47;;;4.33;76.16
27805;BME280;15183;51.350;11.102;2022-11-20T13:06:16;99439.69;;;4.30;76.15
27805;BME280;15183;51.350;11.102;2022-11-20T13:08:55;99433.25;;;4.33;75.82
27805;BME280;15183;51.350;11.102;2022-11-20T13:11:47;99458.00;;;4.59;75.56
27805;BME280;15183;51.350;11.102;2022-11-20T13:19:38;99453.56;;;4.73;75.51
27805;BME280;15183;51.350;11.102;2022-11-20T13:22:05;99425.72;;;4.65;75.54
27805;BME280;15183;51.350;11.102;2022-11-20T13:24:33;99401.03;;;4.46;75.41
27805;BME280;15183;51.350;11.102;2022-11-20T13:27:22;99443.31;;;4.85;74.56
27805;BME280;15183;51.350;11.102;2022-11-20T13:30:11;99448.56;;;4.85;75.30
27805;BME280;15183;51.350;11.102;2022-11-20T13:32:56;99450.59;;;4.83;75.28
27805;BME280;15183;51.350;11.102;2022-11-20T13:35:30;99446.13;;;4.76;74.43
27805;BME280;15183;51.350;11.102;2022-11-20T13:38:12;99431.75;;;4.59;73.92
27805;BME280;15183;51.350;11.102;2022-11-20T13:40:51;99433.56;;;4.58;75.19
27805;BME280;15183;51.350;11.102;2022-11-20T13:43:34;99430.53;;;4.55;75.17
27805;BME280;15183;51.350;11.102;2022-11-20T13:46:05;99425.06;;;4.56;75.44
27805;BME280;15183;51.350;11.102;2022-11-20T13:48:45;99432.16;;;4.62;76.17
27805;BME280;15183;51.350;11.102;2022-11-20T14:00:14;99424.56;;;4.81;75.46
27805;BME280;15183;51.350;11.102;2022-11-20T14:02:44;99423.16;;;4.85;75.17
27805;BME280;15183;51.350;11.102;2022-11-20T14:05:22;99425.56;;;4.87;75.09
27805;BME280;15183;51.350;11.102;2022-11-20T14:07:51;99428.78;;;4.89;74.58
27805;BME280;15183;51.350;11.102;2022-11-20T14:10:29;99424.56;;;4.88;75.29
27805;BME280;15183;51.350;11.102;2022-11-20T14:12:55;99428.22;;;4.93;74.90
27805;BME280;15183;51.350;11.102;2022-11-20T14:17:53;99430.63;;;4.88;74.18
27805;BME280;15183;51.350;11.102;2022-11-20T14:20:20;99437.69;;;4.88;74.68
27805;BME280;15183;51.350;11.102;2022-11-20T14:22:52;99412.00;;;4.70;74.56
27805;BME280;15183;51.350;11.102;2022-11-20T14:25:25;99406.34;;;4.66;74.73
27805;BME280;15183;51.350;11.102;2022-11-20T14:28:01;99420.28;;;4.73;74.53
27805;BME280;15183;51.350;11.102;2022-11-20T14:30:43;99411.59;;;4.66;74.74
27805;BME280;15183;51.350;11.102;2022-11-20T14:33:12;99403.47;;;4.54;73.82
27805;BME280;15183;51.350;11.102;2022-11-20T14:35:49;99415.75;;;4.47;73.63
27805;BME280;15183;51.350;11.102;2022-11-20T14:38:29;99397.31;;;4.33;74.10
27805;BME280;15183;51.350;11.102;2022-11-20T14:41:20;99422.97;;;4.38;74.33
27805;BME280;15183;51.350;11.102;2022-11-20T14:43:57;99422.78;;;4.40;74.70
27805;BME280;15183;51.350;11.102;2022-11-20T14:46:24;99410.00;;;4.23;74.77
27805;BME280;15183;51.350;11.102;2022-11-20T14:48:56;99432.28;;;4.41;75.41
27805;BME280;15183;51.350;11.102;2022-11-20T14:51:38;99406.19;;;4.26;75.36
27805;BME280;15183;51.350;11.102;2022-11-20T14:54:17;99433.44;;;4.31;74.62
27805;BME280;15183;51.350;11.102;2022-11-20T14:57:00;99425.94;;;4.22;73.92
27805;BME280;15183;51.350;11.102;2022-11-20T14:59:33;99430.69;;;4.11;73.79